LBBGLBWN

Guest
Details From LBBG - Burgas
To LBWN - Varna
Flight Number -
Tags Routegen Generated
Created
Modified
Stats Distance 53 nm / 98 km
Max Altitude 200 ft / 61 m
Waypoints 5
Social Downloads 2
Likes 0
Share VATSIM

Download

Looking for another format? Having issues loading an existing format? Contact us
Advertisement - Login to hide

Notes

Departing runway 4 LBBG. Arriving runway 9 LBWN.

Route

LBBG +42.63_+027.60 +42.92_+027.82 +43.21_+028.04 LBWN

ID Type Via Altitude Latitude Longitude Leg Dist Tot Dist Heading (true) Name
O LBBG APT - 200 ft / 61 m 42.58043˚ 27.52888˚ - 0 nm - -
+42.63_+027.60 DME - 200 ft / 61 m 42.63221˚ 27.59757˚ 4 nm 4 nm 44° / 44° -
+42.92_+027.82 DME - 200 ft / 61 m 42.92235˚ 27.81763˚ 19 nm 24 nm 29° / 29° -
+43.21_+028.04 DME - 200 ft / 61 m 43.21249˚ 28.03769˚ 19 nm 44 nm 29° / 29° -
O LBWN APT - 0 ft / 0 m 43.23064˚ 27.84064˚ 8 nm 52 nm 277° / 277° -

Altitude Profile

Advertisement - Login to hide

LBBG

Details ICAO LBBG (BOJ)
Name Burgas
Region Bulgaria
Timezone Europe/Sofia (UTC+2.0)
Stats Elevation 135 ft / 41 m (AMSL)
Location 42.570130° 27.515240°
Runways 1
Magnetic Variation 5.502° E

METAR

LBBG 130200Z 26010KT CAVOK 06/02 Q1018 NOSIG

Decode

TAF

TAF TAF LBBG 122300Z 1300/1324 25008KT CAVOK TEMPO 1302/1306 4000 BR SCT007

Decode

Departure Runways

ID Width Length Bearing (true) Bearing (mag) Surface Threshold Offset Overrun Length
04 148 ft / 45 m 10,502 ft / 3,201 m 44.28° 38.78° Concrete 0 ft / 0 m 190 ft / 58 m
22 148 ft / 45 m 10,502 ft / 3,201 m 224.29° 218.79° Concrete 0 ft / 0 m 190 ft / 58 m

LBWN

Details ICAO LBWN (VAR)
Name Varna
Region Bulgaria
Timezone Europe/Sofia (UTC+2.0)
Stats Elevation 230 ft / 70 m (AMSL)
Location 43.232042° 27.825236°
Runways 1
Magnetic Variation 5.646° E

METAR

LBWN 130200Z 32003KT 280V360 CAVOK 04/01 Q1017 NOSIG

Decode

TAF

TAF LBWN 122300Z 1300/1324 VRB04KT CAVOK TEMPO 1303/1306 4000 BR NSC BECMG 1307/1309 27010KT

Decode

Destination Runways

ID Width Length Bearing (true) Bearing (mag) Surface Threshold Offset Overrun Length
09 180 ft / 55 m 8,254 ft / 2,516 m 97.11° 91.46° Concrete 350 ft / 107 m 0 ft / 0 m
27 180 ft / 55 m 8,254 ft / 2,516 m 277.13° 271.48° Concrete 350 ft / 107 m 0 ft / 0 m

Approach Navaids

Runway Type Ident Frequency Range Bearing (true) Bearing (mag) Slope Elevation
09 Localiser IWN 109.90 MHz 18 nm / 33 km 97.27° 91.62° - 230 ft / 70 m (AMSL)
09 Glidescope IWN 109.90 MHz 10 nm / 19 km 97.12° 91.48° 3.00° 230 ft / 70 m (AMSL)

Popular Alternatives